createdAt,value
2023-03-12T00:00:42.164Z,5.47
2023-03-12T00:03:06.664Z,8.38
2023-03-12T00:05:32.454Z,6.70
2023-03-12T00:07:59.824Z,5.82
2023-03-12T00:10:24.214Z,5.18
2023-03-12T00:12:48.654Z,3.47
2023-03-12T00:15:14.005Z,3.45
2023-03-12T00:17:38.700Z,7.72
2023-03-12T00:20:03.611Z,7.20
2023-03-12T00:22:29.894Z,8.07
2023-03-12T00:24:55.272Z,4.15
2023-03-12T00:27:19.627Z,9.93
2023-03-12T00:29:43.988Z,9.60
2023-03-12T00:32:09.343Z,4.47
2023-03-12T00:34:33.658Z,6.78
2023-03-12T00:36:58.066Z,8.85
2023-03-12T00:39:23.849Z,9.20
2023-03-12T00:41:48.280Z,10.00
2023-03-12T00:44:12.598Z,12.35
2023-03-12T00:46:37.038Z,6.30
2023-03-12T00:49:01.373Z,12.77
2023-03-12T00:51:25.996Z,5.68
2023-03-12T00:53:50.611Z,7.00
2023-03-12T00:56:16.651Z,10.10
2023-03-12T00:58:42.775Z,10.43
2023-03-12T01:01:08.648Z,8.63
2023-03-12T01:03:33.032Z,6.15
2023-03-12T01:05:57.492Z,17.33
2023-03-12T01:08:22.770Z,12.60
2023-03-12T01:10:47.366Z,6.57
2023-03-12T01:13:13.245Z,6.85
2023-03-12T01:15:37.642Z,11.30
2023-03-12T01:18:02.032Z,5.28
2023-03-12T01:20:26.556Z,21.20
2023-03-12T01:22:51.134Z,5.22
2023-03-12T01:25:15.615Z,9.00
2023-03-12T01:27:40.031Z,8.35
2023-03-12T01:30:10.109Z,9.60
2023-03-12T01:32:35.044Z,15.52
2023-03-12T01:35:00.343Z,6.40
2023-03-12T01:37:24.828Z,9.00
2023-03-12T01:39:49.196Z,10.40
2023-03-12T01:42:14.638Z,9.35
2023-03-12T01:44:56.587Z,6.97
2023-03-12T01:47:22.852Z,9.38
2023-03-12T01:49:49.418Z,7.30
2023-03-12T01:52:16.114Z,8.73
2023-03-12T01:54:51.819Z,16.75
2023-03-12T01:57:22.061Z,20.08
2023-03-12T01:59:49.869Z,7.95
2023-03-12T02:02:18.735Z,11.02
2023-03-12T02:04:47.705Z,9.45
2023-03-12T02:07:14.429Z,9.02
2023-03-12T02:09:42.102Z,11.18
2023-03-12T02:12:07.647Z,9.68
2023-03-12T02:14:32.613Z,8.15
2023-03-12T02:16:57.582Z,13.90
2023-03-12T02:19:30.262Z,14.48
2023-03-12T02:21:56.321Z,10.38
2023-03-12T02:24:31.738Z,11.15
2023-03-12T02:26:57.894Z,10.15
2023-03-12T02:29:23.317Z,8.10
2023-03-12T02:31:53.231Z,8.60
2023-03-12T02:34:17.711Z,14.25
2023-03-12T02:36:42.164Z,10.77
2023-03-12T02:39:06.950Z,15.85
2023-03-12T02:41:34.317Z,12.57
2023-03-12T02:44:05.576Z,11.52
2023-03-12T02:46:34.812Z,10.52
2023-03-12T02:49:02.023Z,11.38
2023-03-12T02:51:26.430Z,10.23
2023-03-12T02:53:54.896Z,12.10
2023-03-12T02:56:19.777Z,14.65
2023-03-12T02:58:44.751Z,11.90
2023-03-12T03:01:10.900Z,9.10
2023-03-12T03:03:35.705Z,16.38
2023-03-12T03:06:00.114Z,10.05
2023-03-12T03:08:27.274Z,7.75
2023-03-12T03:10:52.786Z,12.98
2023-03-12T03:13:17.653Z,19.95
2023-03-12T03:15:42.088Z,12.90
2023-03-12T03:18:08.356Z,9.80
2023-03-12T03:20:33.392Z,16.08
2023-03-12T03:22:57.781Z,13.00
2023-03-12T03:25:23.656Z,9.00
2023-03-12T03:27:48.405Z,15.90
2023-03-12T03:30:13.604Z,12.35
2023-03-12T03:32:41.798Z,11.20
2023-03-12T03:35:10.061Z,13.43
2023-03-12T03:37:34.447Z,13.18
2023-03-12T03:39:58.995Z,11.20
2023-03-12T03:42:23.879Z,11.02
2023-03-12T03:44:48.265Z,15.68
2023-03-12T03:47:12.967Z,6.82
2023-03-12T03:49:37.578Z,14.82
2023-03-12T03:52:03.428Z,14.43
2023-03-12T03:54:33.918Z,9.98
2023-03-12T03:56:59.008Z,17.33
2023-03-12T03:59:23.421Z,14.07
2023-03-12T04:01:48.086Z,13.07
2023-03-12T04:04:12.785Z,12.40
2023-03-12T04:06:37.496Z,11.90
2023-03-12T04:09:03.488Z,12.25
2023-03-12T04:11:31.912Z,11.88
2023-03-12T04:13:58.302Z,12.32
2023-03-12T04:16:26.572Z,15.27
2023-03-12T04:18:52.204Z,18.00
2023-03-12T04:21:16.967Z,16.77
2023-03-12T04:23:42.626Z,11.85
2023-03-12T04:26:10.699Z,13.65
2023-03-12T04:28:35.829Z,13.93
2023-03-12T04:31:03.008Z,17.08
2023-03-12T04:33:35.734Z,11.30
2023-03-12T04:36:01.244Z,14.93
2023-03-12T04:38:27.417Z,18.63
2023-03-12T04:40:59.971Z,11.55
2023-03-12T04:43:27.548Z,12.57
2023-03-12T04:45:51.995Z,17.33
2023-03-12T04:48:16.789Z,9.13
2023-03-12T04:50:41.966Z,15.82
2023-03-12T04:53:06.510Z,15.93
2023-03-12T04:55:31.141Z,12.23
2023-03-12T04:57:55.645Z,12.50
2023-03-12T05:00:24.968Z,12.05
2023-03-12T05:02:49.544Z,15.07
2023-03-12T05:05:14.669Z,9.85
2023-03-12T05:07:39.713Z,13.80
2023-03-12T05:10:04.447Z,16.65
2023-03-12T05:12:29.381Z,12.63
2023-03-12T05:14:53.784Z,8.82
2023-03-12T05:17:19.595Z,15.60
2023-03-12T05:19:44.459Z,10.48
2023-03-12T05:22:09.171Z,11.20
2023-03-12T05:24:34.677Z,9.48
2023-03-12T05:27:00.383Z,11.45
2023-03-12T05:29:25.632Z,13.13
2023-03-12T05:31:51.969Z,13.40
2023-03-12T05:34:17.968Z,15.43
2023-03-12T05:36:43.216Z,17.35
2023-03-12T05:39:08.754Z,12.52
2023-03-12T05:41:33.622Z,8.70
2023-03-12T05:44:04.283Z,13.85
2023-03-12T05:46:29.328Z,20.02
2023-03-12T05:48:55.521Z,16.50
2023-03-12T05:51:22.316Z,23.45
2023-03-12T05:53:48.474Z,10.70
2023-03-12T05:56:15.056Z,16.88
2023-03-12T05:58:40.106Z,10.30
2023-03-12T06:01:05.059Z,13.35
2023-03-12T06:03:29.812Z,14.30
2023-03-12T06:05:56.448Z,11.80
2023-03-12T06:08:23.116Z,15.25
2023-03-12T06:10:47.984Z,10.57
2023-03-12T06:13:12.414Z,13.82
2023-03-12T06:15:37.231Z,20.05
2023-03-12T06:18:03.311Z,13.52
2023-03-12T06:20:27.901Z,14.85
2023-03-12T06:22:54.127Z,13.18
2023-03-12T06:25:20.118Z,12.35
2023-03-12T06:27:44.589Z,12.13
2023-03-12T06:30:10.789Z,12.63
2023-03-12T06:32:35.181Z,10.73
2023-03-12T06:35:00.863Z,16.80
2023-03-12T06:37:27.289Z,13.98
2023-03-12T06:39:52.342Z,14.60
2023-03-12T06:42:19.671Z,12.25
2023-03-12T06:44:44.074Z,14.85
2023-03-12T06:47:08.560Z,10.88
2023-03-12T06:49:35.780Z,24.20
2023-03-12T06:52:00.219Z,10.32
2023-03-12T06:54:24.675Z,15.00
2023-03-12T06:56:49.135Z,11.02
2023-03-12T06:59:15.070Z,14.07
2023-03-12T07:01:39.590Z,12.35
2023-03-12T07:04:04.124Z,11.57
2023-03-12T07:06:28.620Z,17.95
2023-03-12T07:08:54.634Z,23.38
2023-03-12T07:11:19.245Z,14.70
2023-03-12T07:13:43.764Z,12.27
2023-03-12T07:16:11.667Z,12.45
2023-03-12T07:18:36.408Z,14.48
2023-03-12T07:21:02.048Z,11.48
2023-03-12T07:23:27.796Z,12.40
2023-03-12T07:25:52.505Z,14.93
2023-03-12T07:28:18.269Z,15.57
2023-03-12T07:30:43.179Z,28.92
2023-03-12T07:33:12.107Z,14.45
2023-03-12T07:35:36.831Z,9.63
2023-03-12T07:38:03.098Z,8.40
2023-03-12T07:40:30.204Z,11.20
2023-03-12T07:42:54.720Z,13.43
2023-03-12T07:45:19.819Z,9.88
2023-03-12T07:47:44.812Z,9.02
2023-03-12T07:50:12.307Z,9.30
2023-03-12T07:52:36.883Z,4.70
2023-03-12T07:55:01.374Z,13.93
2023-03-12T07:57:27.735Z,20.13
2023-03-12T07:59:52.459Z,7.68
2023-03-12T08:02:17.131Z,7.57
2023-03-12T08:04:41.888Z,8.77
2023-03-12T08:07:09.330Z,8.63
2023-03-12T08:09:34.903Z,11.23
2023-03-12T08:11:59.483Z,10.77
2023-03-12T08:14:24.030Z,4.70
2023-03-12T08:16:50.003Z,9.80
2023-03-12T08:19:14.571Z,15.45
2023-03-12T08:21:40.518Z,7.53
2023-03-12T08:24:06.560Z,12.27
2023-03-12T08:26:32.178Z,12.10
2023-03-12T08:28:56.744Z,13.18
2023-03-12T08:31:21.322Z,11.00
2023-03-12T08:33:47.048Z,11.57
2023-03-12T08:36:11.710Z,11.63
2023-03-12T08:38:36.149Z,6.72
2023-03-12T08:41:03.470Z,7.90
2023-03-12T08:43:29.659Z,11.90
2023-03-12T08:45:57.717Z,8.05
2023-03-12T08:48:22.143Z,8.13
2023-03-12T08:50:46.788Z,10.88
2023-03-12T08:53:11.171Z,6.93
2023-03-12T08:55:35.688Z,6.70
2023-03-12T08:58:01.896Z,12.38
2023-03-12T09:00:27.292Z,10.45
2023-03-12T09:02:52.557Z,13.88
2023-03-12T09:05:17.179Z,10.48
2023-03-12T09:07:41.749Z,10.80
2023-03-12T09:10:07.515Z,8.63
2023-03-12T09:12:32.368Z,11.57
2023-03-12T09:15:03.489Z,10.70
2023-03-12T09:17:30.763Z,14.23
2023-03-12T09:19:55.138Z,9.88
2023-03-12T09:22:19.646Z,12.65
2023-03-12T09:24:44.108Z,13.18
2023-03-12T09:27:08.649Z,10.38
2023-03-12T09:29:33.438Z,12.93
2023-03-12T09:32:00.114Z,12.65
2023-03-12T09:34:24.625Z,12.20
2023-03-12T09:36:49.306Z,13.45
2023-03-12T09:39:14.141Z,12.23
2023-03-12T09:41:41.654Z,11.57
2023-03-12T09:44:12.719Z,12.38
2023-03-12T09:46:42.499Z,14.43
2023-03-12T09:49:15.957Z,12.40
2023-03-12T09:51:45.728Z,13.70
2023-03-12T09:54:23.636Z,13.40
2023-03-12T09:56:48.552Z,14.55
2023-03-12T09:59:14.215Z,11.23
2023-03-12T10:01:43.121Z,14.40
2023-03-12T10:04:48.893Z,12.15
2023-03-12T10:07:27.963Z,11.90
2023-03-12T10:10:29.317Z,10.90
2023-03-12T10:13:18.965Z,16.27
2023-03-12T10:15:52.182Z,10.27
2023-03-12T10:18:27.940Z,9.07
2023-03-12T10:21:14.774Z,11.75
2023-03-12T10:24:07.293Z,15.63
2023-03-12T10:26:39.300Z,9.98
2023-03-12T10:29:12.591Z,8.48
2023-03-12T10:31:50.924Z,8.48
2023-03-12T10:34:20.594Z,8.27
2023-03-12T10:36:50.435Z,7.57
2023-03-12T10:39:17.458Z,12.90
2023-03-12T10:41:44.080Z,12.38
2023-03-12T10:44:11.007Z,9.40
2023-03-12T10:46:57.626Z,8.02
2023-03-12T10:49:26.739Z,10.15
2023-03-12T10:52:01.162Z,9.27
2023-03-12T10:54:32.620Z,8.82
2023-03-12T10:56:57.646Z,6.47
2023-03-12T10:59:23.475Z,8.23
2023-03-12T11:01:51.281Z,11.25
2023-03-12T11:04:23.898Z,11.82
2023-03-12T11:07:07.994Z,7.65
2023-03-12T11:09:32.644Z,9.77
2023-03-12T11:11:58.113Z,9.43
2023-03-12T11:14:23.902Z,10.82
2023-03-12T11:16:48.617Z,9.60
2023-03-12T11:19:15.729Z,7.75
2023-03-12T11:21:41.316Z,10.32
2023-03-12T11:24:12.542Z,11.80
2023-03-12T11:26:45.176Z,9.75
2023-03-12T11:29:25.340Z,11.05
2023-03-12T11:31:58.979Z,8.57
2023-03-12T11:34:27.794Z,7.75
2023-03-12T11:37:01.359Z,10.30
2023-03-12T11:39:35.091Z,8.65
2023-03-12T11:42:14.194Z,9.25
2023-03-12T11:44:51.098Z,8.25
2023-03-12T11:47:27.686Z,9.63
2023-03-12T11:50:04.246Z,9.55
2023-03-12T11:52:39.287Z,9.18
2023-03-12T11:55:34.476Z,10.52
2023-03-12T11:58:11.535Z,10.25
2023-03-12T12:00:42.776Z,8.65
2023-03-12T12:03:36.291Z,6.93
2023-03-12T12:06:06.926Z,9.50
2023-03-12T12:08:49.479Z,12.98
2023-03-12T12:11:25.092Z,9.32
2023-03-12T12:13:59.960Z,9.85
2023-03-12T12:16:40.853Z,10.07
2023-03-12T12:19:20.952Z,8.18
2023-03-12T12:22:07.701Z,9.07
2023-03-12T12:24:44.004Z,7.57
2023-03-12T12:27:20.631Z,14.07
2023-03-12T12:29:59.508Z,7.07
2023-03-12T12:32:33.720Z,8.48
2023-03-12T12:35:21.525Z,15.68
2023-03-12T12:37:52.262Z,8.45
2023-03-12T12:40:23.177Z,12.93
2023-03-12T12:43:10.655Z,10.68
2023-03-12T12:45:38.728Z,8.57
2023-03-12T12:48:06.251Z,10.43
2023-03-12T12:50:34.571Z,9.88
2023-03-12T12:53:07.015Z,12.30
2023-03-12T12:55:35.887Z,8.48
2023-03-12T12:58:04.710Z,10.30
2023-03-12T13:00:49.657Z,7.97
2023-03-12T13:03:17.753Z,11.15
2023-03-12T13:05:50.347Z,10.27
2023-03-12T13:08:33.703Z,8.40
2023-03-12T13:11:16.266Z,7.22
2023-03-12T13:13:44.851Z,11.30
2023-03-12T13:16:35.922Z,9.32
2023-03-12T13:21:32.008Z,13.10
2023-03-12T13:24:10.967Z,9.25
2023-03-12T13:26:52.264Z,7.32
2023-03-12T13:29:24.887Z,9.30
2023-03-12T13:31:50.985Z,11.50
2023-03-12T13:34:51.280Z,7.93
2023-03-12T13:37:58.144Z,8.40
2023-03-12T13:41:00.845Z,8.55
2023-03-12T13:43:51.202Z,12.63
2023-03-12T13:46:38.577Z,9.98
2023-03-12T13:49:12.535Z,11.00
2023-03-12T13:51:46.359Z,8.50
2023-03-12T13:54:18.768Z,12.40
2023-03-12T13:56:55.380Z,8.27
2023-03-12T13:59:21.204Z,12.18
2023-03-12T14:01:50.029Z,9.18
2023-03-12T14:04:19.769Z,9.95
2023-03-12T14:06:56.877Z,11.00
2023-03-12T14:09:28.883Z,9.00
2023-03-12T14:12:02.196Z,7.43
2023-03-12T14:14:48.393Z,10.23
2023-03-12T14:17:19.487Z,11.52
2023-03-12T14:19:49.323Z,11.98
2023-03-12T14:22:15.225Z,10.07
2023-03-12T14:24:43.044Z,8.60
2023-03-12T14:27:15.128Z,10.63
2023-03-12T14:29:43.581Z,11.63
2023-03-12T14:32:15.970Z,9.75
2023-03-12T14:34:44.017Z,22.38
2023-03-12T14:37:16.533Z,8.52
2023-03-12T14:39:44.643Z,8.50
2023-03-12T14:42:10.294Z,10.68
2023-03-12T14:44:36.844Z,7.93
2023-03-12T14:47:03.360Z,10.68
2023-03-12T14:49:28.244Z,13.00
2023-03-12T14:51:52.926Z,12.98
2023-03-12T14:54:20.725Z,10.82
2023-03-12T14:56:46.600Z,13.63
2023-03-12T14:59:24.339Z,11.45
2023-03-12T15:01:49.359Z,9.07
2023-03-12T15:04:18.155Z,12.18
2023-03-12T15:06:48.317Z,10.80
2023-03-12T15:09:22.110Z,9.48
2023-03-12T15:11:53.680Z,9.63
2023-03-12T15:14:18.470Z,10.00
2023-03-12T15:16:44.022Z,11.13
2023-03-12T15:19:12.730Z,10.52
2023-03-12T15:21:37.406Z,8.07
2023-03-12T15:24:02.216Z,11.02
2023-03-12T15:26:34.485Z,11.27
2023-03-12T15:29:01.127Z,10.32
2023-03-12T15:31:25.691Z,9.93
2023-03-12T15:34:03.397Z,10.82
2023-03-12T15:36:30.190Z,11.38
2023-03-12T15:38:57.080Z,12.13
2023-03-12T15:41:24.452Z,12.48
2023-03-12T15:43:53.757Z,17.52
2023-03-12T15:46:19.541Z,14.65
2023-03-12T15:48:50.398Z,7.75
2023-03-12T15:51:17.458Z,11.80
2023-03-12T15:53:42.847Z,10.15
2023-03-12T15:56:22.347Z,7.25
2023-03-12T15:58:46.861Z,7.45
2023-03-12T16:01:14.812Z,7.70
2023-03-12T16:03:39.887Z,8.95
2023-03-12T16:06:04.529Z,8.68
2023-03-12T16:08:41.108Z,13.98
2023-03-12T16:11:06.135Z,6.95
2023-03-12T16:13:33.942Z,12.15
2023-03-12T16:15:58.883Z,12.07
2023-03-12T16:18:25.130Z,11.35
2023-03-12T16:20:51.150Z,15.13
2023-03-12T16:23:17.551Z,15.52
2023-03-12T16:25:45.135Z,15.80
2023-03-12T16:28:11.796Z,13.27
2023-03-12T16:30:37.983Z,13.38
2023-03-12T16:33:08.625Z,16.13
2023-03-12T16:35:35.049Z,19.25
2023-03-12T16:38:01.112Z,18.58
2023-03-12T16:40:33.382Z,16.35
2023-03-12T16:43:02.571Z,13.75
2023-03-12T16:45:27.928Z,15.48
2023-03-12T16:47:59.207Z,22.45
2023-03-12T16:50:24.597Z,15.05
2023-03-12T16:52:51.959Z,18.83
2023-03-12T16:55:16.666Z,16.50
2023-03-12T16:57:46.514Z,18.30
2023-03-12T17:00:17.106Z,11.48
2023-03-12T17:02:41.782Z,12.80
2023-03-12T17:05:06.799Z,14.38
2023-03-12T17:07:32.869Z,18.23
2023-03-12T17:09:58.776Z,23.52
2023-03-12T17:12:30.953Z,21.50
2023-03-12T17:14:55.475Z,25.40
2023-03-12T17:17:23.145Z,35.83
2023-03-12T17:19:47.628Z,23.13
2023-03-12T17:22:12.107Z,31.30
2023-03-12T17:24:36.610Z,32.10
2023-03-12T17:27:02.626Z,33.72
2023-03-12T17:29:27.267Z,32.80
2023-03-12T17:31:52.869Z,42.90
2023-03-12T17:34:18.168Z,27.35
2023-03-12T17:36:42.590Z,34.88
2023-03-12T17:39:07.129Z,32.30
2023-03-12T17:41:33.041Z,29.33
2023-03-12T17:44:01.711Z,31.20
2023-03-12T17:46:26.235Z,27.25
2023-03-12T17:48:52.551Z,37.45
2023-03-12T17:51:17.090Z,34.83
2023-03-12T17:53:43.956Z,40.30
2023-03-12T17:56:09.416Z,30.73
2023-03-12T17:58:33.861Z,33.55
2023-03-12T18:01:02.381Z,37.83
2023-03-12T18:03:28.044Z,29.48
2023-03-12T18:05:52.856Z,24.70
2023-03-12T18:08:17.961Z,21.50
2023-03-12T18:10:43.398Z,23.20
2023-03-12T18:13:08.186Z,21.33
2023-03-12T18:15:33.751Z,32.45
2023-03-12T18:18:01.077Z,32.75
2023-03-12T18:20:36.189Z,28.80
2023-03-12T18:23:03.576Z,36.90
2023-03-12T18:25:28.084Z,53.30
2023-03-12T18:27:52.577Z,43.55
2023-03-12T18:30:18.777Z,45.08
2023-03-12T18:32:43.417Z,46.88
2023-03-12T18:35:10.971Z,60.42
2023-03-12T18:37:35.530Z,60.60
2023-03-12T18:40:00.043Z,48.42
2023-03-12T18:42:24.514Z,40.83
2023-03-12T18:44:51.144Z,44.15
2023-03-12T18:47:15.620Z,39.88
2023-03-12T18:49:40.274Z,40.35
2023-03-12T18:52:06.677Z,36.28
2023-03-12T18:54:33.738Z,30.73
2023-03-12T18:56:58.220Z,37.72
2023-03-12T18:59:22.789Z,28.17
2023-03-12T19:01:47.386Z,33.20
2023-03-12T19:04:12.698Z,35.63
2023-03-12T19:06:49.777Z,34.35
2023-03-12T19:09:16.466Z,27.17
2023-03-12T19:11:40.883Z,33.63
2023-03-12T19:14:05.589Z,27.10
2023-03-12T19:16:30.738Z,29.10
2023-03-12T19:18:55.221Z,26.85
2023-03-12T19:21:19.893Z,25.85
2023-03-12T19:23:44.588Z,35.05
2023-03-12T19:26:10.571Z,25.98
2023-03-12T19:28:35.311Z,27.23
2023-03-12T19:31:03.099Z,28.88
2023-03-12T19:33:28.595Z,29.15
2023-03-12T19:35:53.298Z,30.23
2023-03-12T19:38:17.985Z,29.42
2023-03-12T19:40:42.465Z,29.45
2023-03-12T19:43:08.612Z,26.65
2023-03-12T19:45:33.462Z,28.35
2023-03-12T19:47:58.383Z,28.30
2023-03-12T19:50:24.025Z,24.13
2023-03-12T19:52:48.990Z,23.67
2023-03-12T19:55:13.501Z,30.92
2023-03-12T19:57:37.937Z,103.68
2023-03-12T20:00:07.332Z,46.38
2023-03-12T20:02:32.640Z,69.00
2023-03-12T20:04:57.233Z,82.45
2023-03-12T20:07:21.717Z,71.13
2023-03-12T20:09:46.190Z,57.95
2023-03-12T20:12:10.732Z,87.20
2023-03-12T20:14:35.218Z,93.80
2023-03-12T20:17:01.323Z,74.30
2023-03-12T20:19:25.960Z,73.80
2023-03-12T20:21:50.556Z,75.68
2023-03-12T20:24:15.031Z,81.13
2023-03-12T20:26:41.433Z,87.38
2023-03-12T20:29:06.408Z,79.15
2023-03-12T20:31:30.885Z,77.30
2023-03-12T20:33:57.119Z,81.95
2023-03-12T20:36:23.990Z,72.45
2023-03-12T20:38:50.220Z,77.72
2023-03-12T20:41:15.748Z,102.32
2023-03-12T20:43:40.410Z,105.57
2023-03-12T20:46:05.149Z,98.78
2023-03-12T20:48:29.724Z,112.55
2023-03-12T20:50:55.749Z,104.78
2023-03-12T20:53:20.354Z,104.10
2023-03-12T20:55:45.025Z,107.05
2023-03-12T20:58:09.901Z,99.20
2023-03-12T21:00:35.431Z,114.97
2023-03-12T21:03:00.024Z,114.47
2023-03-12T21:05:25.147Z,107.32
2023-03-12T21:07:51.252Z,104.00
2023-03-12T21:10:15.755Z,94.45
2023-03-12T21:12:40.242Z,92.25
2023-03-12T21:15:07.386Z,93.22
2023-03-12T21:17:33.796Z,83.97
2023-03-12T21:19:58.295Z,82.22
2023-03-12T21:22:24.327Z,68.70
2023-03-12T21:24:50.208Z,76.43
2023-03-12T21:27:14.668Z,75.55
2023-03-12T21:29:39.115Z,74.88
2023-03-12T21:32:03.552Z,69.15
2023-03-12T21:34:30.997Z,66.97
2023-03-12T21:36:55.346Z,59.30
2023-03-12T21:39:22.973Z,68.93
2023-03-12T21:41:48.905Z,46.90
2023-03-12T21:44:16.509Z,53.33
2023-03-12T21:46:41.208Z,49.55
2023-03-12T21:49:05.839Z,47.58
2023-03-12T21:51:30.241Z,54.50
2023-03-12T21:53:56.162Z,52.45
2023-03-12T21:56:20.555Z,48.15
2023-03-12T21:58:47.750Z,53.58
2023-03-12T22:01:14.588Z,51.33
2023-03-12T22:03:40.162Z,59.22
2023-03-12T22:06:05.048Z,56.67
2023-03-12T22:08:29.664Z,49.63
2023-03-12T22:10:54.266Z,59.60
2023-03-12T22:13:18.999Z,49.08
2023-03-12T22:15:48.224Z,61.83
2023-03-12T22:18:12.732Z,60.10
2023-03-12T22:20:37.353Z,58.70
2023-03-12T22:23:01.944Z,58.20
2023-03-12T22:25:26.501Z,53.30
2023-03-12T22:27:50.946Z,55.65
2023-03-12T22:30:15.886Z,51.95
2023-03-12T22:32:41.944Z,64.30
2023-03-12T22:35:06.975Z,57.42
2023-03-12T22:37:31.401Z,54.65
2023-03-12T22:40:01.475Z,51.38
2023-03-12T22:44:50.299Z,49.58
2023-03-12T22:47:14.866Z,48.42
2023-03-12T22:49:40.880Z,50.45
2023-03-12T22:52:05.775Z,54.85
2023-03-12T22:54:30.288Z,55.78
2023-03-12T22:56:54.855Z,60.40
2023-03-12T22:59:19.288Z,52.17
2023-03-12T23:01:43.841Z,56.03
2023-03-12T23:04:08.368Z,61.55
2023-03-12T23:06:34.244Z,55.40
2023-03-12T23:08:59.186Z,52.42
2023-03-12T23:11:25.743Z,50.50
2023-03-12T23:13:50.668Z,51.60
2023-03-12T23:16:17.186Z,51.08
2023-03-12T23:18:43.037Z,55.97
2023-03-12T23:21:10.733Z,52.72
2023-03-12T23:23:39.479Z,42.47
2023-03-12T23:26:04.219Z,48.15
2023-03-12T23:28:29.438Z,48.47
2023-03-12T23:30:57.710Z,50.20
2023-03-12T23:33:22.165Z,53.97
2023-03-12T23:35:57.587Z,53.75
2023-03-12T23:38:22.322Z,47.75
2023-03-12T23:40:48.321Z,47.67
2023-03-12T23:43:12.801Z,47.70
2023-03-12T23:45:37.199Z,56.63
2023-03-12T23:48:01.659Z,52.20
2023-03-12T23:50:26.081Z,51.65
2023-03-12T23:52:50.544Z,55.08
2023-03-12T23:55:14.871Z,55.15
2023-03-12T23:57:40.775Z,54.47
